<?xml version="1.0" encoding="UTF-8"?>
<gpx version="1.1" creator="https://www.youtrack.es" xsi:schemaLocation="http://www.topografix.com/GPX/1/1 http://www.topografix.com/GPX/1/1/gpx.xsd http://www.garmin.com/xmlschemas/GpxExtensions/v3 http://www.garmin.com/xmlschemas/GpxExtensionsv3.xsd http://www.garmin.com/xmlschemas/TrackPointExtension/v1 http://www.garmin.com/xmlschemas/TrackPointExtensionv1.xsd" xmlns:gpxtpx="http://www.garmin.com/xmlschemas/TrackPointExtension/v1" xmlns:gpxx="http://www.garmin.com/xmlschemas/GpxExtensions/v3" xmlns:xsi="http://www.w3.org/2001/XMLSchema-instance">
  <metadata>
    <author>
      <name>Diego López</name>
      <email id="santicuellar325" domain="gmail.com"/>
    </author>
    <link href="https://www.youtrack.es">
      <text>YouTrack.es</text>
    </link>
    <time>2026-05-08T00:58:09Z</time>
  </metadata>
  <trk>
    <src>https://www.youtrack.es</src>
    <link href="https://www.youtrack.es/ruta/32227-campaspero-el-henar">
      <text>YouTrack.es</text>
    </link>
    <trkseg>
      <trkpt lat="41.396005" lon="-4.311295">
        <ele>829.046</ele>
        <time>2022-05-17T17:32:13Z</time>
      </trkpt>
      <trkpt lat="41.395951" lon="-4.311144">
        <ele>829.088</ele>
        <time>2022-05-17T17:32:34Z</time>
      </trkpt>
      <trkpt lat="41.396035" lon="-4.311602">
        <ele>829.016</ele>
        <time>2022-05-17T17:32:36Z</time>
      </trkpt>
      <trkpt lat="41.395937" lon="-4.310948">
        <ele>806.609</ele>
        <time>2022-05-17T17:32:40Z</time>
      </trkpt>
      <trkpt lat="41.396173" lon="-4.309816">
        <ele>824.215</ele>
        <time>2022-05-17T17:32:53Z</time>
      </trkpt>
      <trkpt lat="41.396531" lon="-4.309744">
        <ele>824.354</ele>
        <time>2022-05-17T17:33:07Z</time>
      </trkpt>
      <trkpt lat="41.397397" lon="-4.308172">
        <ele>823.237</ele>
        <time>2022-05-17T17:34:00Z</time>
      </trkpt>
      <trkpt lat="41.397803" lon="-4.308527">
        <ele>825.214</ele>
        <time>2022-05-17T17:34:29Z</time>
      </trkpt>
      <trkpt lat="41.397775" lon="-4.307637">
        <ele>827.980</ele>
        <time>2022-05-17T17:34:57Z</time>
      </trkpt>
      <trkpt lat="41.398846" lon="-4.304295">
        <ele>841.692</ele>
        <time>2022-05-17T17:36:53Z</time>
      </trkpt>
      <trkpt lat="41.399174" lon="-4.302535">
        <ele>857.455</ele>
        <time>2022-05-17T17:37:51Z</time>
      </trkpt>
      <trkpt lat="41.399803" lon="-4.301774">
        <ele>862.052</ele>
        <time>2022-05-17T17:38:23Z</time>
      </trkpt>
      <trkpt lat="41.401694" lon="-4.298747">
        <ele>868.359</ele>
        <time>2022-05-17T17:39:47Z</time>
      </trkpt>
      <trkpt lat="41.402636" lon="-4.295953">
        <ele>865.411</ele>
        <time>2022-05-17T17:40:28Z</time>
      </trkpt>
      <trkpt lat="41.403470" lon="-4.294460">
        <ele>871.021</ele>
        <time>2022-05-17T17:41:08Z</time>
      </trkpt>
      <trkpt lat="41.403985" lon="-4.293936">
        <ele>874.503</ele>
        <time>2022-05-17T17:41:30Z</time>
      </trkpt>
      <trkpt lat="41.404196" lon="-4.293239">
        <ele>874.509</ele>
        <time>2022-05-17T17:41:49Z</time>
      </trkpt>
      <trkpt lat="41.405233" lon="-4.287137">
        <ele>884.152</ele>
        <time>2022-05-17T17:43:32Z</time>
      </trkpt>
      <trkpt lat="41.405405" lon="-4.283208">
        <ele>883.711</ele>
        <time>2022-05-17T17:44:23Z</time>
      </trkpt>
      <trkpt lat="41.404786" lon="-4.280797">
        <ele>888.354</ele>
        <time>2022-05-17T17:44:57Z</time>
      </trkpt>
      <trkpt lat="41.404863" lon="-4.279272">
        <ele>888.041</ele>
        <time>2022-05-17T17:45:19Z</time>
      </trkpt>
      <trkpt lat="41.404616" lon="-4.278314">
        <ele>888.797</ele>
        <time>2022-05-17T17:45:36Z</time>
      </trkpt>
      <trkpt lat="41.405400" lon="-4.278081">
        <ele>890.239</ele>
        <time>2022-05-17T17:45:53Z</time>
      </trkpt>
      <trkpt lat="41.407691" lon="-4.276639">
        <ele>890.982</ele>
        <time>2022-05-17T17:46:37Z</time>
      </trkpt>
      <trkpt lat="41.408697" lon="-4.276409">
        <ele>889.729</ele>
        <time>2022-05-17T17:46:55Z</time>
      </trkpt>
      <trkpt lat="41.409302" lon="-4.276020">
        <ele>888.616</ele>
        <time>2022-05-17T17:47:08Z</time>
      </trkpt>
      <trkpt lat="41.409701" lon="-4.275488">
        <ele>886.622</ele>
        <time>2022-05-17T17:47:19Z</time>
      </trkpt>
      <trkpt lat="41.410405" lon="-4.273407">
        <ele>886.662</ele>
        <time>2022-05-17T17:47:50Z</time>
      </trkpt>
      <trkpt lat="41.415355" lon="-4.275862">
        <ele>891.808</ele>
        <time>2022-05-17T17:49:33Z</time>
      </trkpt>
      <trkpt lat="41.415765" lon="-4.275948">
        <ele>892.609</ele>
        <time>2022-05-17T17:49:42Z</time>
      </trkpt>
      <trkpt lat="41.416395" lon="-4.274993">
        <ele>892.773</ele>
        <time>2022-05-17T17:50:00Z</time>
      </trkpt>
      <trkpt lat="41.418309" lon="-4.268920">
        <ele>891.152</ele>
        <time>2022-05-17T17:51:26Z</time>
      </trkpt>
      <trkpt lat="41.421980" lon="-4.268030">
        <ele>892.925</ele>
        <time>2022-05-17T17:52:30Z</time>
      </trkpt>
      <trkpt lat="41.425447" lon="-4.267007">
        <ele>883.532</ele>
        <time>2022-05-17T17:53:30Z</time>
      </trkpt>
      <trkpt lat="41.426974" lon="-4.265756">
        <ele>883.738</ele>
        <time>2022-05-17T17:54:00Z</time>
      </trkpt>
      <trkpt lat="41.430641" lon="-4.264805">
        <ele>884.920</ele>
        <time>2022-05-17T17:55:03Z</time>
      </trkpt>
      <trkpt lat="41.431708" lon="-4.264050">
        <ele>882.683</ele>
        <time>2022-05-17T17:55:24Z</time>
      </trkpt>
      <trkpt lat="41.432470" lon="-4.264358">
        <ele>881.980</ele>
        <time>2022-05-17T17:55:41Z</time>
      </trkpt>
      <trkpt lat="41.433198" lon="-4.263053">
        <ele>882.957</ele>
        <time>2022-05-17T17:56:10Z</time>
      </trkpt>
      <trkpt lat="41.435165" lon="-4.260717">
        <ele>886.514</ele>
        <time>2022-05-17T17:57:12Z</time>
      </trkpt>
      <trkpt lat="41.436182" lon="-4.259030">
        <ele>881.754</ele>
        <time>2022-05-17T17:57:50Z</time>
      </trkpt>
      <trkpt lat="41.436465" lon="-4.257391">
        <ele>884.009</ele>
        <time>2022-05-17T17:58:18Z</time>
      </trkpt>
      <trkpt lat="41.436591" lon="-4.255267">
        <ele>887.209</ele>
        <time>2022-05-17T17:58:54Z</time>
      </trkpt>
      <trkpt lat="41.436879" lon="-4.254430">
        <ele>888.232</ele>
        <time>2022-05-17T17:59:09Z</time>
      </trkpt>
      <trkpt lat="41.437127" lon="-4.252957">
        <ele>889.221</ele>
        <time>2022-05-17T17:59:34Z</time>
      </trkpt>
      <trkpt lat="41.436939" lon="-4.250827">
        <ele>889.454</ele>
        <time>2022-05-17T18:00:08Z</time>
      </trkpt>
      <trkpt lat="41.437217" lon="-4.250205">
        <ele>890.551</ele>
        <time>2022-05-17T18:00:19Z</time>
      </trkpt>
      <trkpt lat="41.438129" lon="-4.249249">
        <ele>892.227</ele>
        <time>2022-05-17T18:00:43Z</time>
      </trkpt>
      <trkpt lat="41.439088" lon="-4.247409">
        <ele>890.739</ele>
        <time>2022-05-17T18:02:34Z</time>
      </trkpt>
      <trkpt lat="41.440987" lon="-4.240201">
        <ele>895.472</ele>
        <time>2022-05-17T18:04:45Z</time>
      </trkpt>
      <trkpt lat="41.441207" lon="-4.236195">
        <ele>893.629</ele>
        <time>2022-05-17T18:06:15Z</time>
      </trkpt>
      <trkpt lat="41.442408" lon="-4.232927">
        <ele>897.886</ele>
        <time>2022-05-17T18:07:11Z</time>
      </trkpt>
      <trkpt lat="41.442751" lon="-4.232481">
        <ele>899.126</ele>
        <time>2022-05-17T18:07:21Z</time>
      </trkpt>
      <trkpt lat="41.443652" lon="-4.230575">
        <ele>898.447</ele>
        <time>2022-05-17T18:07:52Z</time>
      </trkpt>
      <trkpt lat="41.444469" lon="-4.228457">
        <ele>898.911</ele>
        <time>2022-05-17T18:08:23Z</time>
      </trkpt>
      <trkpt lat="41.445171" lon="-4.227469">
        <ele>899.109</ele>
        <time>2022-05-17T18:08:41Z</time>
      </trkpt>
      <trkpt lat="41.445502" lon="-4.226715">
        <ele>899.643</ele>
        <time>2022-05-17T18:08:53Z</time>
      </trkpt>
      <trkpt lat="41.446743" lon="-4.224991">
        <ele>897.272</ele>
        <time>2022-05-17T18:09:25Z</time>
      </trkpt>
      <trkpt lat="41.449203" lon="-4.222692">
        <ele>900.825</ele>
        <time>2022-05-17T18:10:18Z</time>
      </trkpt>
      <trkpt lat="41.450307" lon="-4.222075">
        <ele>901.172</ele>
        <time>2022-05-17T18:10:39Z</time>
      </trkpt>
      <trkpt lat="41.451032" lon="-4.221421">
        <ele>901.868</ele>
        <time>2022-05-17T18:10:55Z</time>
      </trkpt>
      <trkpt lat="41.452203" lon="-4.220045">
        <ele>900.790</ele>
        <time>2022-05-17T18:11:24Z</time>
      </trkpt>
      <trkpt lat="41.453028" lon="-4.218531">
        <ele>901.363</ele>
        <time>2022-05-17T18:11:50Z</time>
      </trkpt>
      <trkpt lat="41.454147" lon="-4.217424">
        <ele>902.510</ele>
        <time>2022-05-17T18:12:16Z</time>
      </trkpt>
      <trkpt lat="41.454547" lon="-4.216761">
        <ele>902.797</ele>
        <time>2022-05-17T18:12:28Z</time>
      </trkpt>
      <trkpt lat="41.455307" lon="-4.216394">
        <ele>903.846</ele>
        <time>2022-05-17T18:12:45Z</time>
      </trkpt>
      <trkpt lat="41.455846" lon="-4.215568">
        <ele>903.288</ele>
        <time>2022-05-17T18:13:03Z</time>
      </trkpt>
      <trkpt lat="41.457506" lon="-4.214010">
        <ele>900.516</ele>
        <time>2022-05-17T18:13:46Z</time>
      </trkpt>
      <trkpt lat="41.458609" lon="-4.212445">
        <ele>900.009</ele>
        <time>2022-05-17T18:14:18Z</time>
      </trkpt>
      <trkpt lat="41.458931" lon="-4.211112">
        <ele>898.375</ele>
        <time>2022-05-17T18:14:39Z</time>
      </trkpt>
      <trkpt lat="41.459023" lon="-4.209586">
        <ele>898.154</ele>
        <time>2022-05-17T18:15:01Z</time>
      </trkpt>
      <trkpt lat="41.459354" lon="-4.208788">
        <ele>896.777</ele>
        <time>2022-05-17T18:15:13Z</time>
      </trkpt>
      <trkpt lat="41.459913" lon="-4.208086">
        <ele>897.284</ele>
        <time>2022-05-17T18:15:27Z</time>
      </trkpt>
      <trkpt lat="41.460717" lon="-4.207394">
        <ele>901.670</ele>
        <time>2022-05-17T18:15:45Z</time>
      </trkpt>
      <trkpt lat="41.461851" lon="-4.205350">
        <ele>900.422</ele>
        <time>2022-05-17T18:16:21Z</time>
      </trkpt>
      <trkpt lat="41.462417" lon="-4.204902">
        <ele>901.285</ele>
        <time>2022-05-17T18:16:33Z</time>
      </trkpt>
      <trkpt lat="41.463268" lon="-4.204557">
        <ele>901.092</ele>
        <time>2022-05-17T18:16:49Z</time>
      </trkpt>
      <trkpt lat="41.464939" lon="-4.204576">
        <ele>899.579</ele>
        <time>2022-05-17T18:17:18Z</time>
      </trkpt>
      <trkpt lat="41.465432" lon="-4.204396">
        <ele>900.769</ele>
        <time>2022-05-17T18:17:27Z</time>
      </trkpt>
      <trkpt lat="41.466949" lon="-4.203553">
        <ele>900.504</ele>
        <time>2022-05-17T18:17:56Z</time>
      </trkpt>
      <trkpt lat="41.469042" lon="-4.201615">
        <ele>896.924</ele>
        <time>2022-05-17T18:18:42Z</time>
      </trkpt>
      <trkpt lat="41.469198" lon="-4.201383">
        <ele>897.109</ele>
        <time>2022-05-17T18:18:47Z</time>
      </trkpt>
      <trkpt lat="41.469137" lon="-4.200608">
        <ele>897.847</ele>
        <time>2022-05-17T18:19:01Z</time>
      </trkpt>
      <trkpt lat="41.469286" lon="-4.199626">
        <ele>897.746</ele>
        <time>2022-05-17T18:19:17Z</time>
      </trkpt>
      <trkpt lat="41.469795" lon="-4.198668">
        <ele>899.439</ele>
        <time>2022-05-17T18:19:35Z</time>
      </trkpt>
      <trkpt lat="41.469790" lon="-4.197863">
        <ele>899.046</ele>
        <time>2022-05-17T18:19:47Z</time>
      </trkpt>
      <trkpt lat="41.469987" lon="-4.197330">
        <ele>899.032</ele>
        <time>2022-05-17T18:19:56Z</time>
      </trkpt>
      <trkpt lat="41.470396" lon="-4.197042">
        <ele>898.984</ele>
        <time>2022-05-17T18:20:07Z</time>
      </trkpt>
      <trkpt lat="41.472419" lon="-4.197066">
        <ele>897.677</ele>
        <time>2022-05-17T18:20:48Z</time>
      </trkpt>
      <trkpt lat="41.472204" lon="-4.194250">
        <ele>901.494</ele>
        <time>2022-05-17T18:21:37Z</time>
      </trkpt>
      <trkpt lat="41.472414" lon="-4.193665">
        <ele>900.751</ele>
        <time>2022-05-17T18:21:49Z</time>
      </trkpt>
      <trkpt lat="41.473708" lon="-4.193685">
        <ele>897.119</ele>
        <time>2022-05-17T18:22:20Z</time>
      </trkpt>
      <trkpt lat="41.475016" lon="-4.194375">
        <ele>896.209</ele>
        <time>2022-05-17T18:22:53Z</time>
      </trkpt>
      <trkpt lat="41.476755" lon="-4.193857">
        <ele>898.719</ele>
        <time>2022-05-17T18:23:57Z</time>
      </trkpt>
      <trkpt lat="41.477518" lon="-4.193796">
        <ele>900.009</ele>
        <time>2022-05-17T18:24:16Z</time>
      </trkpt>
      <trkpt lat="41.477980" lon="-4.192461">
        <ele>899.722</ele>
        <time>2022-05-17T18:24:55Z</time>
      </trkpt>
      <trkpt lat="41.477684" lon="-4.191388">
        <ele>901.791</ele>
        <time>2022-05-17T18:25:24Z</time>
      </trkpt>
      <trkpt lat="41.477903" lon="-4.190987">
        <ele>901.424</ele>
        <time>2022-05-17T18:25:34Z</time>
      </trkpt>
      <trkpt lat="41.477895" lon="-4.190489">
        <ele>906.131</ele>
        <time>2022-05-17T18:25:44Z</time>
      </trkpt>
      <trkpt lat="41.478956" lon="-4.188155">
        <ele>902.787</ele>
        <time>2022-05-17T18:26:33Z</time>
      </trkpt>
      <trkpt lat="41.478097" lon="-4.189934">
        <ele>906.019</ele>
        <time>2022-05-17T18:27:28Z</time>
      </trkpt>
      <trkpt lat="41.477993" lon="-4.190559">
        <ele>910.022</ele>
        <time>2022-05-17T18:30:28Z</time>
      </trkpt>
      <trkpt lat="41.479327" lon="-4.190884">
        <ele>904.219</ele>
        <time>2022-05-17T18:31:07Z</time>
      </trkpt>
      <trkpt lat="41.488413" lon="-4.195915">
        <ele>899.726</ele>
        <time>2022-05-17T18:34:26Z</time>
      </trkpt>
      <trkpt lat="41.489705" lon="-4.196265">
        <ele>899.369</ele>
        <time>2022-05-17T18:34:53Z</time>
      </trkpt>
      <trkpt lat="41.489894" lon="-4.196206">
        <ele>899.604</ele>
        <time>2022-05-17T18:34:58Z</time>
      </trkpt>
      <trkpt lat="41.490935" lon="-4.195453">
        <ele>909.324</ele>
        <time>2022-05-17T18:35:24Z</time>
      </trkpt>
      <trkpt lat="41.491759" lon="-4.194141">
        <ele>905.009</ele>
        <time>2022-05-17T18:36:15Z</time>
      </trkpt>
      <trkpt lat="41.491589" lon="-4.194524">
        <ele>905.245</ele>
        <time>2022-05-17T18:37:09Z</time>
      </trkpt>
      <trkpt lat="41.491731" lon="-4.194149">
        <ele>883.147</ele>
        <time>2022-05-17T18:37:19Z</time>
      </trkpt>
      <trkpt lat="41.491664" lon="-4.197164">
        <ele>878.011</ele>
        <time>2022-05-17T18:38:31Z</time>
      </trkpt>
      <trkpt lat="41.491874" lon="-4.198273">
        <ele>872.909</ele>
        <time>2022-05-17T18:38:49Z</time>
      </trkpt>
      <trkpt lat="41.491395" lon="-4.200224">
        <ele>877.485</ele>
        <time>2022-05-17T18:39:20Z</time>
      </trkpt>
      <trkpt lat="41.491265" lon="-4.202019">
        <ele>871.864</ele>
        <time>2022-05-17T18:39:46Z</time>
      </trkpt>
      <trkpt lat="41.491120" lon="-4.202355">
        <ele>871.977</ele>
        <time>2022-05-17T18:39:52Z</time>
      </trkpt>
      <trkpt lat="41.475619" lon="-4.225172">
        <ele>867.854</ele>
        <time>2022-05-17T18:46:54Z</time>
      </trkpt>
      <trkpt lat="41.475350" lon="-4.225475">
        <ele>875.371</ele>
        <time>2022-05-17T18:47:02Z</time>
      </trkpt>
      <trkpt lat="41.474446" lon="-4.225862">
        <ele>869.487</ele>
        <time>2022-05-17T18:47:20Z</time>
      </trkpt>
      <trkpt lat="41.474021" lon="-4.226665">
        <ele>865.496</ele>
        <time>2022-05-17T18:47:34Z</time>
      </trkpt>
      <trkpt lat="41.472977" lon="-4.227709">
        <ele>861.226</ele>
        <time>2022-05-17T18:47:58Z</time>
      </trkpt>
      <trkpt lat="41.472532" lon="-4.228702">
        <ele>862.063</ele>
        <time>2022-05-17T18:48:14Z</time>
      </trkpt>
      <trkpt lat="41.472473" lon="-4.229891">
        <ele>861.128</ele>
        <time>2022-05-17T18:48:31Z</time>
      </trkpt>
      <trkpt lat="41.472683" lon="-4.231321">
        <ele>860.889</ele>
        <time>2022-05-17T18:48:56Z</time>
      </trkpt>
      <trkpt lat="41.471962" lon="-4.232456">
        <ele>860.417</ele>
        <time>2022-05-17T18:49:20Z</time>
      </trkpt>
      <trkpt lat="41.471264" lon="-4.234609">
        <ele>858.609</ele>
        <time>2022-05-17T18:49:59Z</time>
      </trkpt>
      <trkpt lat="41.472258" lon="-4.238204">
        <ele>860.683</ele>
        <time>2022-05-17T18:51:02Z</time>
      </trkpt>
      <trkpt lat="41.472079" lon="-4.239170">
        <ele>860.742</ele>
        <time>2022-05-17T18:51:18Z</time>
      </trkpt>
      <trkpt lat="41.472368" lon="-4.240298">
        <ele>863.115</ele>
        <time>2022-05-17T18:51:39Z</time>
      </trkpt>
      <trkpt lat="41.472272" lon="-4.241792">
        <ele>861.752</ele>
        <time>2022-05-17T18:52:04Z</time>
      </trkpt>
      <trkpt lat="41.471925" lon="-4.243032">
        <ele>862.979</ele>
        <time>2022-05-17T18:52:28Z</time>
      </trkpt>
      <trkpt lat="41.472072" lon="-4.243812">
        <ele>866.875</ele>
        <time>2022-05-17T18:52:43Z</time>
      </trkpt>
      <trkpt lat="41.471650" lon="-4.244796">
        <ele>854.834</ele>
        <time>2022-05-17T18:53:03Z</time>
      </trkpt>
      <trkpt lat="41.471418" lon="-4.245839">
        <ele>862.174</ele>
        <time>2022-05-17T18:53:17Z</time>
      </trkpt>
      <trkpt lat="41.471699" lon="-4.246739">
        <ele>866.321</ele>
        <time>2022-05-17T18:53:37Z</time>
      </trkpt>
      <trkpt lat="41.472046" lon="-4.247323">
        <ele>869.114</ele>
        <time>2022-05-17T18:53:50Z</time>
      </trkpt>
      <trkpt lat="41.472586" lon="-4.249389">
        <ele>866.154</ele>
        <time>2022-05-17T18:54:26Z</time>
      </trkpt>
      <trkpt lat="41.473080" lon="-4.250616">
        <ele>868.209</ele>
        <time>2022-05-17T18:54:49Z</time>
      </trkpt>
      <trkpt lat="41.473477" lon="-4.253751">
        <ele>867.609</ele>
        <time>2022-05-17T18:55:55Z</time>
      </trkpt>
      <trkpt lat="41.474166" lon="-4.255993">
        <ele>866.922</ele>
        <time>2022-05-17T18:56:34Z</time>
      </trkpt>
      <trkpt lat="41.474559" lon="-4.258264">
        <ele>868.041</ele>
        <time>2022-05-17T18:57:07Z</time>
      </trkpt>
      <trkpt lat="41.474097" lon="-4.260591">
        <ele>868.114</ele>
        <time>2022-05-17T18:57:41Z</time>
      </trkpt>
      <trkpt lat="41.474107" lon="-4.261983">
        <ele>863.791</ele>
        <time>2022-05-17T18:58:00Z</time>
      </trkpt>
      <trkpt lat="41.473327" lon="-4.261969">
        <ele>863.488</ele>
        <time>2022-05-17T18:58:16Z</time>
      </trkpt>
      <trkpt lat="41.470755" lon="-4.264013">
        <ele>864.634</ele>
        <time>2022-05-17T18:59:15Z</time>
      </trkpt>
      <trkpt lat="41.466339" lon="-4.266123">
        <ele>868.783</ele>
        <time>2022-05-17T19:00:40Z</time>
      </trkpt>
      <trkpt lat="41.463272" lon="-4.268515">
        <ele>872.553</ele>
        <time>2022-05-17T19:01:41Z</time>
      </trkpt>
      <trkpt lat="41.461145" lon="-4.270303">
        <ele>869.270</ele>
        <time>2022-05-17T19:02:22Z</time>
      </trkpt>
      <trkpt lat="41.458291" lon="-4.273741">
        <ele>860.212</ele>
        <time>2022-05-17T19:03:26Z</time>
      </trkpt>
      <trkpt lat="41.457014" lon="-4.274883">
        <ele>859.432</ele>
        <time>2022-05-17T19:03:53Z</time>
      </trkpt>
      <trkpt lat="41.454109" lon="-4.277911">
        <ele>863.105</ele>
        <time>2022-05-17T19:05:01Z</time>
      </trkpt>
      <trkpt lat="41.450910" lon="-4.280470">
        <ele>861.709</ele>
        <time>2022-05-17T19:06:07Z</time>
      </trkpt>
      <trkpt lat="41.449847" lon="-4.280785">
        <ele>862.872</ele>
        <time>2022-05-17T19:06:26Z</time>
      </trkpt>
      <trkpt lat="41.446578" lon="-4.281189">
        <ele>864.051</ele>
        <time>2022-05-17T19:07:23Z</time>
      </trkpt>
      <trkpt lat="41.446071" lon="-4.282972">
        <ele>864.884</ele>
        <time>2022-05-17T19:07:49Z</time>
      </trkpt>
      <trkpt lat="41.445038" lon="-4.284616">
        <ele>862.471</ele>
        <time>2022-05-17T19:08:19Z</time>
      </trkpt>
      <trkpt lat="41.446762" lon="-4.295173">
        <ele>861.788</ele>
        <time>2022-05-17T19:10:44Z</time>
      </trkpt>
      <trkpt lat="41.440387" lon="-4.298350">
        <ele>862.124</ele>
        <time>2022-05-17T19:12:44Z</time>
      </trkpt>
      <trkpt lat="41.438471" lon="-4.299631">
        <ele>858.583</ele>
        <time>2022-05-17T19:13:20Z</time>
      </trkpt>
      <trkpt lat="41.438121" lon="-4.304307">
        <ele>855.893</ele>
        <time>2022-05-17T19:14:22Z</time>
      </trkpt>
      <trkpt lat="41.438369" lon="-4.306398">
        <ele>854.280</ele>
        <time>2022-05-17T19:14:58Z</time>
      </trkpt>
      <trkpt lat="41.438009" lon="-4.307963">
        <ele>853.384</ele>
        <time>2022-05-17T19:15:25Z</time>
      </trkpt>
      <trkpt lat="41.437775" lon="-4.311751">
        <ele>849.507</ele>
        <time>2022-05-17T19:16:23Z</time>
      </trkpt>
      <trkpt lat="41.437397" lon="-4.314025">
        <ele>852.917</ele>
        <time>2022-05-17T19:16:59Z</time>
      </trkpt>
      <trkpt lat="41.439379" lon="-4.313796">
        <ele>853.609</ele>
        <time>2022-05-17T19:17:43Z</time>
      </trkpt>
      <trkpt lat="41.440266" lon="-4.314909">
        <ele>857.169</ele>
        <time>2022-05-17T19:18:08Z</time>
      </trkpt>
      <trkpt lat="41.440933" lon="-4.315356">
        <ele>856.058</ele>
        <time>2022-05-17T19:18:22Z</time>
      </trkpt>
      <trkpt lat="41.441274" lon="-4.315859">
        <ele>855.521</ele>
        <time>2022-05-17T19:18:31Z</time>
      </trkpt>
      <trkpt lat="41.441753" lon="-4.316218">
        <ele>855.698</ele>
        <time>2022-05-17T19:18:40Z</time>
      </trkpt>
      <trkpt lat="41.442389" lon="-4.317366">
        <ele>855.325</ele>
        <time>2022-05-17T19:18:59Z</time>
      </trkpt>
      <trkpt lat="41.443128" lon="-4.318234">
        <ele>854.721</ele>
        <time>2022-05-17T19:19:18Z</time>
      </trkpt>
      <trkpt lat="41.443967" lon="-4.319563">
        <ele>855.030</ele>
        <time>2022-05-17T19:19:44Z</time>
      </trkpt>
      <trkpt lat="41.444901" lon="-4.320500">
        <ele>855.750</ele>
        <time>2022-05-17T19:20:08Z</time>
      </trkpt>
      <trkpt lat="41.446340" lon="-4.322558">
        <ele>853.297</ele>
        <time>2022-05-17T19:20:50Z</time>
      </trkpt>
      <trkpt lat="41.446941" lon="-4.324165">
        <ele>850.173</ele>
        <time>2022-05-17T19:21:15Z</time>
      </trkpt>
      <trkpt lat="41.447212" lon="-4.325418">
        <ele>846.485</ele>
        <time>2022-05-17T19:21:38Z</time>
      </trkpt>
      <trkpt lat="41.447061" lon="-4.327805">
        <ele>830.913</ele>
        <time>2022-05-17T19:22:12Z</time>
      </trkpt>
      <trkpt lat="41.447389" lon="-4.331427">
        <ele>844.009</ele>
        <time>2022-05-17T19:23:06Z</time>
      </trkpt>
      <trkpt lat="41.447093" lon="-4.335295">
        <ele>841.868</ele>
        <time>2022-05-17T19:24:01Z</time>
      </trkpt>
      <trkpt lat="41.447719" lon="-4.338380">
        <ele>847.237</ele>
        <time>2022-05-17T19:24:51Z</time>
      </trkpt>
      <trkpt lat="41.447747" lon="-4.339900">
        <ele>850.690</ele>
        <time>2022-05-17T19:25:12Z</time>
      </trkpt>
      <trkpt lat="41.447540" lon="-4.342271">
        <ele>850.737</ele>
        <time>2022-05-17T19:25:47Z</time>
      </trkpt>
      <trkpt lat="41.447216" lon="-4.343227">
        <ele>847.564</ele>
        <time>2022-05-17T19:26:07Z</time>
      </trkpt>
      <trkpt lat="41.444225" lon="-4.345450">
        <ele>841.760</ele>
        <time>2022-05-17T19:27:13Z</time>
      </trkpt>
      <trkpt lat="41.443759" lon="-4.346045">
        <ele>836.569</ele>
        <time>2022-05-17T19:27:27Z</time>
      </trkpt>
      <trkpt lat="41.443374" lon="-4.346967">
        <ele>837.889</ele>
        <time>2022-05-17T19:27:42Z</time>
      </trkpt>
      <trkpt lat="41.443562" lon="-4.348515">
        <ele>848.516</ele>
        <time>2022-05-17T19:28:11Z</time>
      </trkpt>
      <trkpt lat="41.443160" lon="-4.348899">
        <ele>844.757</ele>
        <time>2022-05-17T19:28:24Z</time>
      </trkpt>
      <trkpt lat="41.443009" lon="-4.349694">
        <ele>843.500</ele>
        <time>2022-05-17T19:28:44Z</time>
      </trkpt>
      <trkpt lat="41.443038" lon="-4.349658">
        <ele>879.347</ele>
        <time>2022-05-17T19:29:31Z</time>
      </trkpt>
      <trkpt lat="41.443064" lon="-4.348580">
        <ele>880.929</ele>
        <time>2022-05-17T19:29:55Z</time>
      </trkpt>
      <trkpt lat="41.441689" lon="-4.346763">
        <ele>878.221</ele>
        <time>2022-05-17T19:30:34Z</time>
      </trkpt>
      <trkpt lat="41.441242" lon="-4.345935">
        <ele>880.209</ele>
        <time>2022-05-17T19:30:51Z</time>
      </trkpt>
      <trkpt lat="41.440758" lon="-4.343693">
        <ele>883.165</ele>
        <time>2022-05-17T19:31:31Z</time>
      </trkpt>
      <trkpt lat="41.439994" lon="-4.341707">
        <ele>880.384</ele>
        <time>2022-05-17T19:32:05Z</time>
      </trkpt>
      <trkpt lat="41.439640" lon="-4.339765">
        <ele>887.277</ele>
        <time>2022-05-17T19:32:32Z</time>
      </trkpt>
      <trkpt lat="41.438450" lon="-4.337601">
        <ele>887.054</ele>
        <time>2022-05-17T19:33:07Z</time>
      </trkpt>
      <trkpt lat="41.437680" lon="-4.336538">
        <ele>892.161</ele>
        <time>2022-05-17T19:33:26Z</time>
      </trkpt>
      <trkpt lat="41.436920" lon="-4.333471">
        <ele>889.312</ele>
        <time>2022-05-17T19:34:00Z</time>
      </trkpt>
      <trkpt lat="41.435906" lon="-4.331094">
        <ele>887.020</ele>
        <time>2022-05-17T19:34:27Z</time>
      </trkpt>
      <trkpt lat="41.435395" lon="-4.330393">
        <ele>886.565</ele>
        <time>2022-05-17T19:34:37Z</time>
      </trkpt>
      <trkpt lat="41.433983" lon="-4.329035">
        <ele>887.114</ele>
        <time>2022-05-17T19:35:01Z</time>
      </trkpt>
      <trkpt lat="41.432331" lon="-4.326986">
        <ele>886.345</ele>
        <time>2022-05-17T19:37:14Z</time>
      </trkpt>
      <trkpt lat="41.430398" lon="-4.324551">
        <ele>888.047</ele>
        <time>2022-05-17T19:37:54Z</time>
      </trkpt>
      <trkpt lat="41.429976" lon="-4.323698">
        <ele>887.311</ele>
        <time>2022-05-17T19:38:05Z</time>
      </trkpt>
      <trkpt lat="41.427594" lon="-4.323925">
        <ele>887.609</ele>
        <time>2022-05-17T19:38:40Z</time>
      </trkpt>
      <trkpt lat="41.424742" lon="-4.323478">
        <ele>889.175</ele>
        <time>2022-05-17T19:39:18Z</time>
      </trkpt>
      <trkpt lat="41.422266" lon="-4.323400">
        <ele>887.354</ele>
        <time>2022-05-17T19:39:57Z</time>
      </trkpt>
      <trkpt lat="41.420397" lon="-4.323041">
        <ele>887.557</ele>
        <time>2022-05-17T19:40:59Z</time>
      </trkpt>
      <trkpt lat="41.420833" lon="-4.321090">
        <ele>889.944</ele>
        <time>2022-05-17T19:41:57Z</time>
      </trkpt>
      <trkpt lat="41.420630" lon="-4.320828">
        <ele>889.421</ele>
        <time>2022-05-17T19:42:03Z</time>
      </trkpt>
      <trkpt lat="41.420012" lon="-4.320801">
        <ele>881.142</ele>
        <time>2022-05-17T19:42:16Z</time>
      </trkpt>
      <trkpt lat="41.419640" lon="-4.320221">
        <ele>881.810</ele>
        <time>2022-05-17T19:42:26Z</time>
      </trkpt>
      <trkpt lat="41.419380" lon="-4.320170">
        <ele>879.815</ele>
        <time>2022-05-17T19:42:32Z</time>
      </trkpt>
      <trkpt lat="41.418522" lon="-4.319128">
        <ele>882.574</ele>
        <time>2022-05-17T19:42:58Z</time>
      </trkpt>
      <trkpt lat="41.418246" lon="-4.318971">
        <ele>881.886</ele>
        <time>2022-05-17T19:43:04Z</time>
      </trkpt>
      <trkpt lat="41.417623" lon="-4.316114">
        <ele>888.160</ele>
        <time>2022-05-17T19:43:46Z</time>
      </trkpt>
      <trkpt lat="41.417279" lon="-4.315366">
        <ele>890.526</ele>
        <time>2022-05-17T19:43:57Z</time>
      </trkpt>
      <trkpt lat="41.416736" lon="-4.314889">
        <ele>889.209</ele>
        <time>2022-05-17T19:44:10Z</time>
      </trkpt>
      <trkpt lat="41.416279" lon="-4.314021">
        <ele>884.519</ele>
        <time>2022-05-17T19:44:24Z</time>
      </trkpt>
      <trkpt lat="41.416239" lon="-4.313488">
        <ele>887.238</ele>
        <time>2022-05-17T19:44:32Z</time>
      </trkpt>
      <trkpt lat="41.416098" lon="-4.313390">
        <ele>888.531</ele>
        <time>2022-05-17T19:44:36Z</time>
      </trkpt>
      <trkpt lat="41.413071" lon="-4.313869">
        <ele>897.958</ele>
        <time>2022-05-17T19:45:31Z</time>
      </trkpt>
      <trkpt lat="41.409180" lon="-4.315738">
        <ele>893.245</ele>
        <time>2022-05-17T19:46:29Z</time>
      </trkpt>
      <trkpt lat="41.404534" lon="-4.316984">
        <ele>891.086</ele>
        <time>2022-05-17T19:47:40Z</time>
      </trkpt>
      <trkpt lat="41.403321" lon="-4.318386">
        <ele>888.224</ele>
        <time>2022-05-17T19:48:04Z</time>
      </trkpt>
      <trkpt lat="41.402471" lon="-4.319821">
        <ele>897.419</ele>
        <time>2022-05-17T20:10:24Z</time>
      </trkpt>
      <trkpt lat="41.401685" lon="-4.319832">
        <ele>891.198</ele>
        <time>2022-05-17T20:10:48Z</time>
      </trkpt>
      <trkpt lat="41.401293" lon="-4.320464">
        <ele>886.348</ele>
        <time>2022-05-17T20:11:00Z</time>
      </trkpt>
      <trkpt lat="41.400563" lon="-4.320960">
        <ele>880.361</ele>
        <time>2022-05-17T20:11:12Z</time>
      </trkpt>
      <trkpt lat="41.399088" lon="-4.321086">
        <ele>873.817</ele>
        <time>2022-05-17T20:11:28Z</time>
      </trkpt>
      <trkpt lat="41.398804" lon="-4.320673">
        <ele>872.609</ele>
        <time>2022-05-17T20:11:38Z</time>
      </trkpt>
      <trkpt lat="41.398588" lon="-4.319843">
        <ele>872.165</ele>
        <time>2022-05-17T20:11:49Z</time>
      </trkpt>
      <trkpt lat="41.398563" lon="-4.315366">
        <ele>850.814</ele>
        <time>2022-05-17T20:12:39Z</time>
      </trkpt>
      <trkpt lat="41.398352" lon="-4.313885">
        <ele>847.727</ele>
        <time>2022-05-17T20:13:00Z</time>
      </trkpt>
      <trkpt lat="41.398027" lon="-4.313160">
        <ele>847.964</ele>
        <time>2022-05-17T20:13:12Z</time>
      </trkpt>
      <trkpt lat="41.396928" lon="-4.312686">
        <ele>848.181</ele>
        <time>2022-05-17T20:13:34Z</time>
      </trkpt>
      <trkpt lat="41.396589" lon="-4.312152">
        <ele>842.182</ele>
        <time>2022-05-17T20:13:41Z</time>
      </trkpt>
      <trkpt lat="41.395865" lon="-4.311870">
        <ele>838.360</ele>
        <time>2022-05-17T20:13:54Z</time>
      </trkpt>
      <trkpt lat="41.395921" lon="-4.311226">
        <ele>834.045</ele>
        <time>2022-05-17T20:14:10Z</time>
      </trkpt>
    </trkseg>
  </trk>
</gpx>
